KRZR

Cleveland Regional Jetport Airport

Cleveland, Tennessee, USA
METAR KRZR 181235Z AUTO 00000KT 10SM CLR M02/M02 A3016 RMK A01
Observed Flight Rules
Dec-18 @ 12:35 UTC (33 minutes ago) Visual Flight Rules
Visibility Clouds
10 miles
  • Clear skies
Temperatures Readings
Current -2°C / 28°F
Dewpoint -2°C / 28°F
Humidity 100%
Altimeter 30.16" Hg
Pressure 1021 hPa
Elevation 263
METAR KRZR 181235Z AUTO 00000KT 10SM CLR M02/M02 A3016 RMK A01
Observed Flight Rules
Dec-18 @ 12:35 UTC
(33 minutes ago)
VFR
Clouds
  • Clear skies
Temperature Dewpoint
-2°C / 28°F -2°C / 28°F
Humidity Altimeter Pressure
100% 30.16" Hg 1021 hPa